sensor_id;sensor_type;location;lat;lon;timestamp;temperature;humidity
18126;DHT22;53956;52.442;13.284;2023-05-24T00:00:26;16.80;87.60
18126;DHT22;53956;52.442;13.284;2023-05-24T00:02:53;16.60;86.90
18126;DHT22;53956;52.442;13.284;2023-05-24T00:05:21;16.70;87.40
18126;DHT22;53956;52.442;13.284;2023-05-24T00:07:48;16.60;87.10
18126;DHT22;53956;52.442;13.284;2023-05-24T00:10:15;16.60;87.20
18126;DHT22;53956;52.442;13.284;2023-05-24T00:12:42;16.60;87.20
18126;DHT22;53956;52.442;13.284;2023-05-24T00:15:10;16.50;87.70
18126;DHT22;53956;52.442;13.284;2023-05-24T00:17:37;16.50;88.50
18126;DHT22;53956;52.442;13.284;2023-05-24T00:20:07;16.40;88.40
18126;DHT22;53956;52.442;13.284;2023-05-24T00:22:35;16.30;89.20
18126;DHT22;53956;52.442;13.284;2023-05-24T00:25:02;16.30;88.00
18126;DHT22;53956;52.442;13.284;2023-05-24T00:27:29;16.20;88.60
18126;DHT22;53956;52.442;13.284;2023-05-24T00:29:56;16.40;88.50
18126;DHT22;53956;52.442;13.284;2023-05-24T00:32:24;16.30;88.40
18126;DHT22;53956;52.442;13.284;2023-05-24T00:34:50;16.20;88.30
18126;DHT22;53956;52.442;13.284;2023-05-24T00:37:17;16.30;87.70
18126;DHT22;53956;52.442;13.284;2023-05-24T00:39:44;16.30;87.70
18126;DHT22;53956;52.442;13.284;2023-05-24T00:42:10;16.30;88.80
18126;DHT22;53956;52.442;13.284;2023-05-24T00:44:37;16.20;88.50
18126;DHT22;53956;52.442;13.284;2023-05-24T00:47:04;16.20;89.30
18126;DHT22;53956;52.442;13.284;2023-05-24T00:49:35;16.20;89.90
18126;DHT22;53956;52.442;13.284;2023-05-24T00:52:02;16.20;89.40
18126;DHT22;53956;52.442;13.284;2023-05-24T00:54:29;16.30;89.30
18126;DHT22;53956;52.442;13.284;2023-05-24T00:56:56;16.30;89.20
18126;DHT22;53956;52.442;13.284;2023-05-24T00:59:25;16.20;89.30
18126;DHT22;53956;52.442;13.284;2023-05-24T01:01:52;16.40;89.30
18126;DHT22;53956;52.442;13.284;2023-05-24T01:04:19;16.40;89.40
18126;DHT22;53956;52.442;13.284;2023-05-24T01:07:05;16.40;89.10
18126;DHT22;53956;52.442;13.284;2023-05-24T01:09:46;16.40;88.50
18126;DHT22;53956;52.442;13.284;2023-05-24T01:12:24;16.40;88.60
18126;DHT22;53956;52.442;13.284;2023-05-24T01:14:59;16.50;88.70
18126;DHT22;53956;52.442;13.284;2023-05-24T01:17:34;16.40;88.70
18126;DHT22;53956;52.442;13.284;2023-05-24T01:20:04;16.50;88.70
18126;DHT22;53956;52.442;13.284;2023-05-24T01:22:59;16.30;88.60
18126;DHT22;53956;52.442;13.284;2023-05-24T01:25:44;16.30;87.90
18126;DHT22;53956;52.442;13.284;2023-05-24T01:28:15;16.40;87.80
18126;DHT22;53956;52.442;13.284;2023-05-24T01:30:44;16.40;88.40
18126;DHT22;53956;52.442;13.284;2023-05-24T01:33:11;16.30;88.90
18126;DHT22;53956;52.442;13.284;2023-05-24T01:35:38;16.40;88.20
18126;DHT22;53956;52.442;13.284;2023-05-24T01:38:06;16.40;88.80
18126;DHT22;53956;52.442;13.284;2023-05-24T01:40:34;16.60;88.70
18126;DHT22;53956;52.442;13.284;2023-05-24T01:43:04;16.60;88.10
18126;DHT22;53956;52.442;13.284;2023-05-24T01:45:39;16.50;88.90
18126;DHT22;53956;52.442;13.284;2023-05-24T01:48:12;16.50;88.30
18126;DHT22;53956;52.442;13.284;2023-05-24T01:50:47;16.50;88.90
18126;DHT22;53956;52.442;13.284;2023-05-24T01:53:18;16.50;88.90
18126;DHT22;53956;52.442;13.284;2023-05-24T01:55:47;16.50;89.40
18126;DHT22;53956;52.442;13.284;2023-05-24T01:58:16;16.60;89.40
18126;DHT22;53956;52.442;13.284;2023-05-24T02:00:46;16.60;88.90
18126;DHT22;53956;52.442;13.284;2023-05-24T02:03:13;16.40;88.80
18126;DHT22;53956;52.442;13.284;2023-05-24T02:05:40;16.50;88.70
18126;DHT22;53956;52.442;13.284;2023-05-24T02:08:08;16.60;88.40
18126;DHT22;53956;52.442;13.284;2023-05-24T02:10:35;16.50;88.80
18126;DHT22;53956;52.442;13.284;2023-05-24T02:13:04;16.60;88.90
18126;DHT22;53956;52.442;13.284;2023-05-24T02:15:32;16.50;88.30
18126;DHT22;53956;52.442;13.284;2023-05-24T02:18:01;16.40;87.90
18126;DHT22;53956;52.442;13.284;2023-05-24T02:20:28;16.50;87.80
18126;DHT22;53956;52.442;13.284;2023-05-24T02:22:55;16.40;88.20
18126;DHT22;53956;52.442;13.284;2023-05-24T02:25:24;16.50;88.00
18126;DHT22;53956;52.442;13.284;2023-05-24T02:27:51;16.50;87.50
18126;DHT22;53956;52.442;13.284;2023-05-24T02:30:18;16.40;88.90
18126;DHT22;53956;52.442;13.284;2023-05-24T02:32:45;16.50;88.30
18126;DHT22;53956;52.442;13.284;2023-05-24T02:35:13;16.50;88.20
18126;DHT22;53956;52.442;13.284;2023-05-24T02:37:40;16.40;88.50
18126;DHT22;53956;52.442;13.284;2023-05-24T02:40:07;16.50;88.80
18126;DHT22;53956;52.442;13.284;2023-05-24T02:42:34;16.60;87.90
18126;DHT22;53956;52.442;13.284;2023-05-24T02:45:01;16.50;87.90
18126;DHT22;53956;52.442;13.284;2023-05-24T02:47:28;16.50;88.10
18126;DHT22;53956;52.442;13.284;2023-05-24T02:49:55;16.40;87.50
18126;DHT22;53956;52.442;13.284;2023-05-24T02:52:24;16.60;87.80
18126;DHT22;53956;52.442;13.284;2023-05-24T02:54:51;16.30;87.40
18126;DHT22;53956;52.442;13.284;2023-05-24T02:57:19;16.40;87.00
18126;DHT22;53956;52.442;13.284;2023-05-24T02:59:47;16.40;87.70
18126;DHT22;53956;52.442;13.284;2023-05-24T03:02:14;16.40;87.50
18126;DHT22;53956;52.442;13.284;2023-05-24T03:04:42;16.50;87.80
18126;DHT22;53956;52.442;13.284;2023-05-24T03:07:10;16.40;87.20
18126;DHT22;53956;52.442;13.284;2023-05-24T03:09:39;16.50;87.80
18126;DHT22;53956;52.442;13.284;2023-05-24T03:12:06;16.50;87.00
18126;DHT22;53956;52.442;13.284;2023-05-24T03:14:33;16.50;86.80
18126;DHT22;53956;52.442;13.284;2023-05-24T03:17:00;16.40;86.90
18126;DHT22;53956;52.442;13.284;2023-05-24T03:19:27;16.40;87.00
18126;DHT22;53956;52.442;13.284;2023-05-24T03:21:55;16.50;87.10
18126;DHT22;53956;52.442;13.284;2023-05-24T03:24:23;16.40;87.00
18126;DHT22;53956;52.442;13.284;2023-05-24T03:26:51;16.40;86.70
18126;DHT22;53956;52.442;13.284;2023-05-24T03:29:18;16.30;87.40
18126;DHT22;53956;52.442;13.284;2023-05-24T03:31:46;16.40;86.70
18126;DHT22;53956;52.442;13.284;2023-05-24T03:34:12;16.30;86.50
18126;DHT22;53956;52.442;13.284;2023-05-24T03:36:39;16.30;87.80
18126;DHT22;53956;52.442;13.284;2023-05-24T03:39:06;16.30;87.30
18126;DHT22;53956;52.442;13.284;2023-05-24T03:41:47;16.40;87.00
18126;DHT22;53956;52.442;13.284;2023-05-24T03:44:16;16.20;87.60
18126;DHT22;53956;52.442;13.284;2023-05-24T03:46:42;16.20;86.30
18126;DHT22;53956;52.442;13.284;2023-05-24T03:49:09;16.20;87.10
18126;DHT22;53956;52.442;13.284;2023-05-24T03:51:36;16.10;86.70
18126;DHT22;53956;52.442;13.284;2023-05-24T03:54:03;16.10;87.10
18126;DHT22;53956;52.442;13.284;2023-05-24T03:56:30;16.20;87.30
18126;DHT22;53956;52.442;13.284;2023-05-24T03:58:56;16.10;87.30
18126;DHT22;53956;52.442;13.284;2023-05-24T04:01:26;16.30;86.80
18126;DHT22;53956;52.442;13.284;2023-05-24T04:03:55;16.20;86.30
18126;DHT22;53956;52.442;13.284;2023-05-24T04:06:22;16.10;86.50
18126;DHT22;53956;52.442;13.284;2023-05-24T04:08:53;16.20;86.10
18126;DHT22;53956;52.442;13.284;2023-05-24T04:11:20;16.10;86.40
18126;DHT22;53956;52.442;13.284;2023-05-24T04:13:48;16.00;86.40
18126;DHT22;53956;52.442;13.284;2023-05-24T04:16:15;16.10;86.20
18126;DHT22;53956;52.442;13.284;2023-05-24T04:18:43;16.20;85.30
18126;DHT22;53956;52.442;13.284;2023-05-24T04:21:10;16.20;85.00
18126;DHT22;53956;52.442;13.284;2023-05-24T04:23:37;16.20;84.10
18126;DHT22;53956;52.442;13.284;2023-05-24T04:26:04;16.20;84.90
18126;DHT22;53956;52.442;13.284;2023-05-24T04:28:32;16.10;85.20
18126;DHT22;53956;52.442;13.284;2023-05-24T04:30:59;16.00;84.70
18126;DHT22;53956;52.442;13.284;2023-05-24T04:33:26;16.10;84.20
18126;DHT22;53956;52.442;13.284;2023-05-24T04:35:54;16.00;84.90
18126;DHT22;53956;52.442;13.284;2023-05-24T04:38:21;16.00;84.90
18126;DHT22;53956;52.442;13.284;2023-05-24T04:40:49;16.00;85.00
18126;DHT22;53956;52.442;13.284;2023-05-24T04:43:15;15.90;84.30
18126;DHT22;53956;52.442;13.284;2023-05-24T04:45:42;16.00;84.50
18126;DHT22;53956;52.442;13.284;2023-05-24T04:48:09;16.00;84.50
18126;DHT22;53956;52.442;13.284;2023-05-24T04:50:35;16.00;84.30
18126;DHT22;53956;52.442;13.284;2023-05-24T04:53:04;16.00;84.50
18126;DHT22;53956;52.442;13.284;2023-05-24T04:55:30;16.00;84.70
18126;DHT22;53956;52.442;13.284;2023-05-24T04:57:58;16.00;84.20
18126;DHT22;53956;52.442;13.284;2023-05-24T05:00:25;16.10;84.10
18126;DHT22;53956;52.442;13.284;2023-05-24T05:02:51;16.10;83.50
18126;DHT22;53956;52.442;13.284;2023-05-24T05:05:18;16.00;84.00
18126;DHT22;53956;52.442;13.284;2023-05-24T05:07:45;15.90;83.50
18126;DHT22;53956;52.442;13.284;2023-05-24T05:10:14;15.90;83.20
18126;DHT22;53956;52.442;13.284;2023-05-24T05:12:41;15.90;83.10
18126;DHT22;53956;52.442;13.284;2023-05-24T05:15:08;16.00;83.20
18126;DHT22;53956;52.442;13.284;2023-05-24T05:17:35;16.00;83.70
18126;DHT22;53956;52.442;13.284;2023-05-24T05:20:02;16.00;83.50
18126;DHT22;53956;52.442;13.284;2023-05-24T05:22:28;16.00;83.50
18126;DHT22;53956;52.442;13.284;2023-05-24T05:24:55;16.00;83.70
18126;DHT22;53956;52.442;13.284;2023-05-24T05:27:23;16.10;83.00
18126;DHT22;53956;52.442;13.284;2023-05-24T05:29:50;16.00;82.90
18126;DHT22;53956;52.442;13.284;2023-05-24T05:32:16;16.00;82.90
18126;DHT22;53956;52.442;13.284;2023-05-24T05:34:43;15.90;83.30
18126;DHT22;53956;52.442;13.284;2023-05-24T05:37:10;15.90;83.20
18126;DHT22;53956;52.442;13.284;2023-05-24T05:39:36;15.90;83.70
18126;DHT22;53956;52.442;13.284;2023-05-24T05:42:04;15.80;83.80
18126;DHT22;53956;52.442;13.284;2023-05-24T05:44:32;16.00;84.40
18126;DHT22;53956;52.442;13.284;2023-05-24T05:46:58;15.90;83.90
18126;DHT22;53956;52.442;13.284;2023-05-24T05:49:25;15.80;84.30
18126;DHT22;53956;52.442;13.284;2023-05-24T05:51:52;15.90;84.50
18126;DHT22;53956;52.442;13.284;2023-05-24T05:54:19;15.90;84.70
18126;DHT22;53956;52.442;13.284;2023-05-24T05:56:45;16.00;84.40
18126;DHT22;53956;52.442;13.284;2023-05-24T05:59:13;16.00;84.60
18126;DHT22;53956;52.442;13.284;2023-05-24T06:01:42;15.90;84.90
18126;DHT22;53956;52.442;13.284;2023-05-24T06:04:10;16.00;84.40
18126;DHT22;53956;52.442;13.284;2023-05-24T06:06:36;16.00;85.20
18126;DHT22;53956;52.442;13.284;2023-05-24T06:09:03;16.10;84.40
18126;DHT22;53956;52.442;13.284;2023-05-24T06:11:30;16.00;85.00
18126;DHT22;53956;52.442;13.284;2023-05-24T06:13:56;16.00;85.50
18126;DHT22;53956;52.442;13.284;2023-05-24T06:16:23;16.10;84.80
18126;DHT22;53956;52.442;13.284;2023-05-24T06:18:51;16.10;85.00
18126;DHT22;53956;52.442;13.284;2023-05-24T06:21:17;16.20;85.10
18126;DHT22;53956;52.442;13.284;2023-05-24T06:23:44;16.20;85.30
18126;DHT22;53956;52.442;13.284;2023-05-24T06:26:11;16.20;85.40
18126;DHT22;53956;52.442;13.284;2023-05-24T06:28:37;16.20;85.40
18126;DHT22;53956;52.442;13.284;2023-05-24T06:31:04;16.30;85.60
18126;DHT22;53956;52.442;13.284;2023-05-24T06:33:31;16.40;86.20
18126;DHT22;53956;52.442;13.284;2023-05-24T06:35:59;16.30;84.90
18126;DHT22;53956;52.442;13.284;2023-05-24T06:38:26;16.30;85.00
18126;DHT22;53956;52.442;13.284;2023-05-24T06:40:53;16.30;85.40
18126;DHT22;53956;52.442;13.284;2023-05-24T06:43:19;16.40;85.10
18126;DHT22;53956;52.442;13.284;2023-05-24T06:45:46;16.40;85.10
18126;DHT22;53956;52.442;13.284;2023-05-24T06:48:13;16.40;85.50
18126;DHT22;53956;52.442;13.284;2023-05-24T06:50:40;16.40;84.80
18126;DHT22;53956;52.442;13.284;2023-05-24T06:53:08;16.40;84.60
18126;DHT22;53956;52.442;13.284;2023-05-24T06:55:35;16.40;85.20
18126;DHT22;53956;52.442;13.284;2023-05-24T06:58:02;16.30;85.30
18126;DHT22;53956;52.442;13.284;2023-05-24T07:00:29;16.30;85.20
18126;DHT22;53956;52.442;13.284;2023-05-24T07:02:56;16.30;85.30
18126;DHT22;53956;52.442;13.284;2023-05-24T07:05:23;16.30;85.50
18126;DHT22;53956;52.442;13.284;2023-05-24T07:07:49;16.30;85.70
18126;DHT22;53956;52.442;13.284;2023-05-24T07:10:17;16.40;86.00
18126;DHT22;53956;52.442;13.284;2023-05-24T07:12:44;16.30;85.90
18126;DHT22;53956;52.442;13.284;2023-05-24T07:15:11;16.40;85.40
18126;DHT22;53956;52.442;13.284;2023-05-24T07:17:37;16.40;86.70
18126;DHT22;53956;52.442;13.284;2023-05-24T07:20:05;16.50;86.70
18126;DHT22;53956;52.442;13.284;2023-05-24T07:22:34;16.40;86.40
18126;DHT22;53956;52.442;13.284;2023-05-24T07:25:01;16.50;86.30
18126;DHT22;53956;52.442;13.284;2023-05-24T07:27:30;16.50;86.30
18126;DHT22;53956;52.442;13.284;2023-05-24T07:29:57;16.50;86.20
18126;DHT22;53956;52.442;13.284;2023-05-24T07:32:24;16.50;86.20
18126;DHT22;53956;52.442;13.284;2023-05-24T07:34:51;16.50;86.60
18126;DHT22;53956;52.442;13.284;2023-05-24T07:37:18;16.60;85.50
18126;DHT22;53956;52.442;13.284;2023-05-24T07:39:48;16.50;85.50
18126;DHT22;53956;52.442;13.284;2023-05-24T07:42:15;16.50;85.80
18126;DHT22;53956;52.442;13.284;2023-05-24T07:44:43;16.60;85.80
18126;DHT22;53956;52.442;13.284;2023-05-24T07:47:09;16.60;86.30
18126;DHT22;53956;52.442;13.284;2023-05-24T07:49:36;16.60;86.10
18126;DHT22;53956;52.442;13.284;2023-05-24T07:52:03;16.50;86.50
18126;DHT22;53956;52.442;13.284;2023-05-24T07:54:30;16.50;87.20
18126;DHT22;53956;52.442;13.284;2023-05-24T07:56:57;16.60;86.30
18126;DHT22;53956;52.442;13.284;2023-05-24T07:59:23;16.60;86.20
18126;DHT22;53956;52.442;13.284;2023-05-24T08:01:51;16.60;85.90
18126;DHT22;53956;52.442;13.284;2023-05-24T08:04:18;16.50;86.10
18126;DHT22;53956;52.442;13.284;2023-05-24T08:06:45;16.50;86.70
18126;DHT22;53956;52.442;13.284;2023-05-24T08:09:11;16.50;86.30
18126;DHT22;53956;52.442;13.284;2023-05-24T08:11:38;16.60;85.80
18126;DHT22;53956;52.442;13.284;2023-05-24T08:14:06;16.60;85.70
18126;DHT22;53956;52.442;13.284;2023-05-24T08:16:33;16.70;86.70
18126;DHT22;53956;52.442;13.284;2023-05-24T08:19:01;16.60;87.00
18126;DHT22;53956;52.442;13.284;2023-05-24T08:21:27;16.70;86.50
18126;DHT22;53956;52.442;13.284;2023-05-24T08:23:54;16.70;86.40
18126;DHT22;53956;52.442;13.284;2023-05-24T08:26:21;16.70;86.20
18126;DHT22;53956;52.442;13.284;2023-05-24T08:28:48;16.70;86.50
18126;DHT22;53956;52.442;13.284;2023-05-24T08:31:15;16.70;86.40
18126;DHT22;53956;52.442;13.284;2023-05-24T08:33:42;16.70;86.70
18126;DHT22;53956;52.442;13.284;2023-05-24T08:36:10;16.70;87.10
18126;DHT22;53956;52.442;13.284;2023-05-24T08:38:36;16.70;86.70
18126;DHT22;53956;52.442;13.284;2023-05-24T08:41:04;16.80;86.70
18126;DHT22;53956;52.442;13.284;2023-05-24T08:43:32;16.80;87.00
18126;DHT22;53956;52.442;13.284;2023-05-24T08:46:00;16.70;86.30
18126;DHT22;53956;52.442;13.284;2023-05-24T08:48:27;16.80;87.10
18126;DHT22;53956;52.442;13.284;2023-05-24T08:50:54;16.90;86.80
18126;DHT22;53956;52.442;13.284;2023-05-24T08:53:23;16.90;86.20
18126;DHT22;53956;52.442;13.284;2023-05-24T08:55:52;16.80;86.10
18126;DHT22;53956;52.442;13.284;2023-05-24T08:58:20;16.80;86.10
18126;DHT22;53956;52.442;13.284;2023-05-24T09:00:46;16.90;86.40
18126;DHT22;53956;52.442;13.284;2023-05-24T09:03:13;16.90;86.80
18126;DHT22;53956;52.442;13.284;2023-05-24T09:05:40;17.00;86.10
18126;DHT22;53956;52.442;13.284;2023-05-24T09:08:08;16.80;85.40
18126;DHT22;53956;52.442;13.284;2023-05-24T09:10:36;16.80;86.20
18126;DHT22;53956;52.442;13.284;2023-05-24T09:13:04;16.90;86.30
18126;DHT22;53956;52.442;13.284;2023-05-24T09:15:32;17.00;86.00
18126;DHT22;53956;52.442;13.284;2023-05-24T09:17:59;17.00;85.30
18126;DHT22;53956;52.442;13.284;2023-05-24T09:20:26;17.10;85.20
18126;DHT22;53956;52.442;13.284;2023-05-24T09:22:52;17.10;84.50
18126;DHT22;53956;52.442;13.284;2023-05-24T09:25:19;17.20;83.80
18126;DHT22;53956;52.442;13.284;2023-05-24T09:27:52;17.30;83.40
18126;DHT22;53956;52.442;13.284;2023-05-24T09:30:19;17.30;82.10
18126;DHT22;53956;52.442;13.284;2023-05-24T09:32:54;17.30;82.50
18126;DHT22;53956;52.442;13.284;2023-05-24T09:35:22;17.40;82.40
18126;DHT22;53956;52.442;13.284;2023-05-24T09:37:49;17.50;82.40
18126;DHT22;53956;52.442;13.284;2023-05-24T09:40:19;17.50;83.00
18126;DHT22;53956;52.442;13.284;2023-05-24T09:42:46;17.70;83.10
18126;DHT22;53956;52.442;13.284;2023-05-24T09:45:17;17.60;82.70
18126;DHT22;53956;52.442;13.284;2023-05-24T09:47:44;17.60;81.70
18126;DHT22;53956;52.442;13.284;2023-05-24T09:50:12;17.60;82.30
18126;DHT22;53956;52.442;13.284;2023-05-24T09:52:39;17.50;82.60
18126;DHT22;53956;52.442;13.284;2023-05-24T09:55:12;17.50;83.20
18126;DHT22;53956;52.442;13.284;2023-05-24T09:57:39;17.50;82.70
18126;DHT22;53956;52.442;13.284;2023-05-24T10:00:07;17.30;82.80
18126;DHT22;53956;52.442;13.284;2023-05-24T10:02:43;17.30;83.50
18126;DHT22;53956;52.442;13.284;2023-05-24T10:05:10;17.40;83.60
18126;DHT22;53956;52.442;13.284;2023-05-24T10:07:38;17.30;82.90
18126;DHT22;53956;52.442;13.284;2023-05-24T10:10:07;17.40;82.80
18126;DHT22;53956;52.442;13.284;2023-05-24T10:12:35;17.40;82.30
18126;DHT22;53956;52.442;13.284;2023-05-24T10:15:09;17.40;82.00
18126;DHT22;53956;52.442;13.284;2023-05-24T10:17:36;17.40;83.20
18126;DHT22;53956;52.442;13.284;2023-05-24T10:20:05;17.30;82.00
18126;DHT22;53956;52.442;13.284;2023-05-24T10:22:38;17.40;82.20
18126;DHT22;53956;52.442;13.284;2023-05-24T10:25:07;17.30;82.30
18126;DHT22;53956;52.442;13.284;2023-05-24T10:27:37;17.40;83.20
18126;DHT22;53956;52.442;13.284;2023-05-24T10:30:10;17.30;83.90
18126;DHT22;53956;52.442;13.284;2023-05-24T10:32:41;17.30;83.70
18126;DHT22;53956;52.442;13.284;2023-05-24T10:35:11;17.30;84.20
18126;DHT22;53956;52.442;13.284;2023-05-24T10:37:39;17.30;84.10
18126;DHT22;53956;52.442;13.284;2023-05-24T10:40:15;17.20;83.60
18126;DHT22;53956;52.442;13.284;2023-05-24T10:42:42;17.20;83.90
18126;DHT22;53956;52.442;13.284;2023-05-24T10:45:29;17.30;84.20
18126;DHT22;53956;52.442;13.284;2023-05-24T10:48:00;17.30;84.00
18126;DHT22;53956;52.442;13.284;2023-05-24T10:50:28;17.30;83.90
18126;DHT22;53956;52.442;13.284;2023-05-24T10:53:10;17.40;82.70
18126;DHT22;53956;52.442;13.284;2023-05-24T10:55:50;17.40;83.40
18126;DHT22;53956;52.442;13.284;2023-05-24T10:58:18;17.40;82.40
18126;DHT22;53956;52.442;13.284;2023-05-24T11:00:45;17.50;82.30
18126;DHT22;53956;52.442;13.284;2023-05-24T11:03:13;17.60;82.60
18126;DHT22;53956;52.442;13.284;2023-05-24T11:05:51;17.40;81.90
18126;DHT22;53956;52.442;13.284;2023-05-24T11:08:28;17.90;82.10
18126;DHT22;53956;52.442;13.284;2023-05-24T11:11:05;18.20;80.90
18126;DHT22;53956;52.442;13.284;2023-05-24T11:13:34;18.40;80.30
18126;DHT22;53956;52.442;13.284;2023-05-24T11:16:01;18.50;80.00
18126;DHT22;53956;52.442;13.284;2023-05-24T11:18:28;18.50;80.20
18126;DHT22;53956;52.442;13.284;2023-05-24T11:20:58;18.60;79.10
18126;DHT22;53956;52.442;13.284;2023-05-24T11:23:25;18.30;78.60
18126;DHT22;53956;52.442;13.284;2023-05-24T11:25:53;18.20;76.80
18126;DHT22;53956;52.442;13.284;2023-05-24T11:28:21;18.20;76.60
18126;DHT22;53956;52.442;13.284;2023-05-24T11:30:48;18.20;77.60
18126;DHT22;53956;52.442;13.284;2023-05-24T11:33:16;18.30;77.60
18126;DHT22;53956;52.442;13.284;2023-05-24T11:35:43;18.20;78.00
18126;DHT22;53956;52.442;13.284;2023-05-24T11:38:11;18.20;78.10
18126;DHT22;53956;52.442;13.284;2023-05-24T11:40:39;18.10;79.70
18126;DHT22;53956;52.442;13.284;2023-05-24T11:43:10;18.10;79.60
18126;DHT22;53956;52.442;13.284;2023-05-24T11:45:38;18.00;79.60
18126;DHT22;53956;52.442;13.284;2023-05-24T11:48:06;17.90;80.00
18126;DHT22;53956;52.442;13.284;2023-05-24T11:50:37;17.70;80.00
18126;DHT22;53956;52.442;13.284;2023-05-24T11:53:04;17.90;79.70
18126;DHT22;53956;52.442;13.284;2023-05-24T11:55:32;17.90;78.50
18126;DHT22;53956;52.442;13.284;2023-05-24T11:58:00;18.00;79.00
18126;DHT22;53956;52.442;13.284;2023-05-24T12:00:30;18.10;79.20
18126;DHT22;53956;52.442;13.284;2023-05-24T12:02:57;18.20;77.80
18126;DHT22;53956;52.442;13.284;2023-05-24T12:05:26;18.30;77.30
18126;DHT22;53956;52.442;13.284;2023-05-24T12:08:00;18.40;77.60
18126;DHT22;53956;52.442;13.284;2023-05-24T12:10:29;18.40;77.40
18126;DHT22;53956;52.442;13.284;2023-05-24T12:12:57;18.50;77.60
18126;DHT22;53956;52.442;13.284;2023-05-24T12:15:24;18.50;76.60
18126;DHT22;53956;52.442;13.284;2023-05-24T12:17:51;18.50;77.10
18126;DHT22;53956;52.442;13.284;2023-05-24T12:20:18;18.40;77.40
18126;DHT22;53956;52.442;13.284;2023-05-24T12:22:47;18.30;77.80
18126;DHT22;53956;52.442;13.284;2023-05-24T12:25:16;18.40;77.70
18126;DHT22;53956;52.442;13.284;2023-05-24T12:27:44;18.40;78.00
18126;DHT22;53956;52.442;13.284;2023-05-24T12:30:15;18.40;78.40
18126;DHT22;53956;52.442;13.284;2023-05-24T12:32:46;18.40;79.30
18126;DHT22;53956;52.442;13.284;2023-05-24T12:35:13;18.30;79.10
18126;DHT22;53956;52.442;13.284;2023-05-24T12:37:40;18.30;78.90
18126;DHT22;53956;52.442;13.284;2023-05-24T12:40:14;18.30;78.90
18126;DHT22;53956;52.442;13.284;2023-05-24T12:42:42;18.20;78.40
18126;DHT22;53956;52.442;13.284;2023-05-24T12:45:10;18.20;78.90
18126;DHT22;53956;52.442;13.284;2023-05-24T12:47:39;18.20;78.90
18126;DHT22;53956;52.442;13.284;2023-05-24T12:50:07;18.30;78.50
18126;DHT22;53956;52.442;13.284;2023-05-24T12:52:34;18.40;78.40
18126;DHT22;53956;52.442;13.284;2023-05-24T12:55:00;18.50;77.80
18126;DHT22;53956;52.442;13.284;2023-05-24T12:57:27;18.60;78.70
18126;DHT22;53956;52.442;13.284;2023-05-24T12:59:55;18.70;77.30
18126;DHT22;53956;52.442;13.284;2023-05-24T13:02:22;18.70;77.50
18126;DHT22;53956;52.442;13.284;2023-05-24T13:04:50;18.70;76.20
18126;DHT22;53956;52.442;13.284;2023-05-24T13:07:16;18.80;74.80
18126;DHT22;53956;52.442;13.284;2023-05-24T13:09:43;18.60;75.80
18126;DHT22;53956;52.442;13.284;2023-05-24T13:12:09;18.70;77.50
18126;DHT22;53956;52.442;13.284;2023-05-24T13:14:36;18.80;77.10
18126;DHT22;53956;52.442;13.284;2023-05-24T13:17:03;18.70;77.10
18126;DHT22;53956;52.442;13.284;2023-05-24T13:19:30;18.90;77.00
18126;DHT22;53956;52.442;13.284;2023-05-24T13:21:58;18.80;77.20
18126;DHT22;53956;52.442;13.284;2023-05-24T13:24:25;18.80;77.40
18126;DHT22;53956;52.442;13.284;2023-05-24T13:26:52;18.70;77.40
18126;DHT22;53956;52.442;13.284;2023-05-24T13:29:19;18.70;77.10
18126;DHT22;53956;52.442;13.284;2023-05-24T13:31:45;18.90;77.30
18126;DHT22;53956;52.442;13.284;2023-05-24T13:34:12;18.90;77.10
18126;DHT22;53956;52.442;13.284;2023-05-24T13:36:39;18.70;77.20
18126;DHT22;53956;52.442;13.284;2023-05-24T13:39:07;18.70;77.20
18126;DHT22;53956;52.442;13.284;2023-05-24T13:41:35;18.90;77.80
18126;DHT22;53956;52.442;13.284;2023-05-24T13:44:03;18.80;77.00
18126;DHT22;53956;52.442;13.284;2023-05-24T13:46:30;18.80;77.60
18126;DHT22;53956;52.442;13.284;2023-05-24T13:48:56;18.90;77.30
18126;DHT22;53956;52.442;13.284;2023-05-24T13:51:23;18.90;78.70
18126;DHT22;53956;52.442;13.284;2023-05-24T13:53:54;18.80;77.50
18126;DHT22;53956;52.442;13.284;2023-05-24T13:56:22;18.90;78.20
18126;DHT22;53956;52.442;13.284;2023-05-24T13:58:57;18.80;77.60
18126;DHT22;53956;52.442;13.284;2023-05-24T14:01:24;18.90;77.60
18126;DHT22;53956;52.442;13.284;2023-05-24T14:03:51;18.80;78.10
18126;DHT22;53956;52.442;13.284;2023-05-24T14:06:18;18.90;78.80
18126;DHT22;53956;52.442;13.284;2023-05-24T14:08:46;18.90;78.60
18126;DHT22;53956;52.442;13.284;2023-05-24T14:11:13;18.90;78.50
18126;DHT22;53956;52.442;13.284;2023-05-24T14:13:41;18.80;78.00
18126;DHT22;53956;52.442;13.284;2023-05-24T14:16:08;18.70;78.40
18126;DHT22;53956;52.442;13.284;2023-05-24T14:18:35;18.70;78.50
18126;DHT22;53956;52.442;13.284;2023-05-24T14:21:02;18.70;79.90
18126;DHT22;53956;52.442;13.284;2023-05-24T14:23:29;18.60;80.50
18126;DHT22;53956;52.442;13.284;2023-05-24T14:25:57;18.60;80.10
18126;DHT22;53956;52.442;13.284;2023-05-24T14:28:25;18.70;79.80
18126;DHT22;53956;52.442;13.284;2023-05-24T14:30:53;18.80;79.20
18126;DHT22;53956;52.442;13.284;2023-05-24T14:33:19;18.90;78.60
18126;DHT22;53956;52.442;13.284;2023-05-24T14:35:48;18.90;78.10
18126;DHT22;53956;52.442;13.284;2023-05-24T14:38:16;18.90;78.00
18126;DHT22;53956;52.442;13.284;2023-05-24T14:40:42;19.10;78.00
18126;DHT22;53956;52.442;13.284;2023-05-24T14:43:11;19.10;77.60
18126;DHT22;53956;52.442;13.284;2023-05-24T14:45:39;19.10;77.60
18126;DHT22;53956;52.442;13.284;2023-05-24T14:48:07;19.20;78.20
18126;DHT22;53956;52.442;13.284;2023-05-24T14:50:35;19.10;78.20
18126;DHT22;53956;52.442;13.284;2023-05-24T14:53:02;19.10;78.00
18126;DHT22;53956;52.442;13.284;2023-05-24T14:55:34;19.20;77.20
18126;DHT22;53956;52.442;13.284;2023-05-24T14:58:00;19.10;76.60
18126;DHT22;53956;52.442;13.284;2023-05-24T15:00:27;19.00;77.20
18126;DHT22;53956;52.442;13.284;2023-05-24T15:02:54;19.10;77.20
18126;DHT22;53956;52.442;13.284;2023-05-24T15:05:21;19.10;77.40
18126;DHT22;53956;52.442;13.284;2023-05-24T15:07:48;19.20;77.60
18126;DHT22;53956;52.442;13.284;2023-05-24T15:10:15;19.20;76.30
18126;DHT22;53956;52.442;13.284;2023-05-24T15:12:42;19.30;77.00
18126;DHT22;53956;52.442;13.284;2023-05-24T15:15:10;19.30;76.80
18126;DHT22;53956;52.442;13.284;2023-05-24T15:17:36;19.30;76.60
18126;DHT22;53956;52.442;13.284;2023-05-24T15:20:04;19.30;76.90